Austin, Texas
Traffic Map
Current Weather Conditions
Austin, Texas
Few Clouds
Few Clouds
90°
Feels Like: 94°
Wind Chill: 90° Ceiling: Unl
Heat Index: 94° Visibility: 10mi
Dew Point: 68° Wind: 7mph
Humidity: 48% Direction: 200° (SSW)
Pressure: 29.76in Gusts: 0mph
Raw Report DataKATT 012151Z AUTO 20006KT 10SM FEW055 32/20 A2976 RMK AO2 SLP063 T03220200
Traffic Incident Summary
Active as of:
Severity:
Category:
InformationThere was an issue retrieving the traffic information for this location. Please try a different location or try again shortly.
Advertisements
Track Severe Weather on mobile